sensor_id;sensor_type;location;lat;lon;timestamp;P1;durP1;ratioP1;P2;durP2;ratioP2
5795;SDS011;2924;51.458;7.046;2022-11-20T00:00:56;27.63;;;16.23;;
5795;SDS011;2924;51.458;7.046;2022-11-20T00:03:22;31.23;;;17.53;;
5795;SDS011;2924;51.458;7.046;2022-11-20T00:05:48;27.20;;;15.53;;
5795;SDS011;2924;51.458;7.046;2022-11-20T00:08:14;25.77;;;15.20;;
5795;SDS011;2924;51.458;7.046;2022-11-20T00:10:40;31.20;;;15.87;;
5795;SDS011;2924;51.458;7.046;2022-11-20T00:13:06;34.50;;;17.17;;
5795;SDS011;2924;51.458;7.046;2022-11-20T00:15:32;27.37;;;16.47;;
5795;SDS011;2924;51.458;7.046;2022-11-20T00:17:58;27.70;;;16.23;;
5795;SDS011;2924;51.458;7.046;2022-11-20T00:20:24;32.23;;;18.47;;
5795;SDS011;2924;51.458;7.046;2022-11-20T00:22:49;30.63;;;15.77;;
5795;SDS011;2924;51.458;7.046;2022-11-20T00:25:15;32.73;;;18.20;;
5795;SDS011;2924;51.458;7.046;2022-11-20T00:27:41;28.27;;;16.40;;
5795;SDS011;2924;51.458;7.046;2022-11-20T00:30:07;32.77;;;16.53;;
5795;SDS011;2924;51.458;7.046;2022-11-20T00:32:33;29.07;;;16.70;;
5795;SDS011;2924;51.458;7.046;2022-11-20T00:34:59;34.40;;;17.90;;
5795;SDS011;2924;51.458;7.046;2022-11-20T00:37:25;29.43;;;16.80;;
5795;SDS011;2924;51.458;7.046;2022-11-20T00:39:50;28.73;;;16.30;;
5795;SDS011;2924;51.458;7.046;2022-11-20T00:42:16;32.10;;;18.13;;
5795;SDS011;2924;51.458;7.046;2022-11-20T00:44:42;33.13;;;17.03;;
5795;SDS011;2924;51.458;7.046;2022-11-20T00:47:07;29.10;;;16.53;;
5795;SDS011;2924;51.458;7.046;2022-11-20T00:49:33;25.97;;;15.90;;
5795;SDS011;2924;51.458;7.046;2022-11-20T00:51:58;28.10;;;15.50;;
5795;SDS011;2924;51.458;7.046;2022-11-20T00:54:24;31.10;;;15.50;;
5795;SDS011;2924;51.458;7.046;2022-11-20T00:56:52;27.80;;;16.57;;
5795;SDS011;2924;51.458;7.046;2022-11-20T00:59:18;28.30;;;16.47;;
5795;SDS011;2924;51.458;7.046;2022-11-20T01:01:44;29.60;;;17.50;;
5795;SDS011;2924;51.458;7.046;2022-11-20T01:04:10;30.47;;;17.47;;
5795;SDS011;2924;51.458;7.046;2022-11-20T01:06:36;29.37;;;14.90;;
5795;SDS011;2924;51.458;7.046;2022-11-20T01:09:05;31.63;;;17.83;;
5795;SDS011;2924;51.458;7.046;2022-11-20T01:11:36;26.67;;;15.50;;
5795;SDS011;2924;51.458;7.046;2022-11-20T01:14:07;30.80;;;18.27;;
5795;SDS011;2924;51.458;7.046;2022-11-20T01:16:36;34.40;;;19.00;;
5795;SDS011;2924;51.458;7.046;2022-11-20T01:19:05;34.90;;;18.13;;
5795;SDS011;2924;51.458;7.046;2022-11-20T01:21:33;31.20;;;18.30;;
5795;SDS011;2924;51.458;7.046;2022-11-20T01:24:01;33.10;;;18.63;;
5795;SDS011;2924;51.458;7.046;2022-11-20T01:26:29;34.77;;;18.83;;
5795;SDS011;2924;51.458;7.046;2022-11-20T01:28:56;34.40;;;17.93;;
5795;SDS011;2924;51.458;7.046;2022-11-20T01:31:24;34.20;;;18.70;;
5795;SDS011;2924;51.458;7.046;2022-11-20T01:33:53;36.87;;;16.70;;
5795;SDS011;2924;51.458;7.046;2022-11-20T01:36:20;38.63;;;20.80;;
5795;SDS011;2924;51.458;7.046;2022-11-20T01:38:47;31.03;;;18.80;;
5795;SDS011;2924;51.458;7.046;2022-11-20T01:41:16;699.83;;;81.43;;
5795;SDS011;2924;51.458;7.046;2022-11-20T01:44:00;37.90;;;20.27;;
5795;SDS011;2924;51.458;7.046;2022-11-20T01:46:28;40.27;;;20.90;;
5795;SDS011;2924;51.458;7.046;2022-11-20T01:48:55;39.20;;;20.40;;
5795;SDS011;2924;51.458;7.046;2022-11-20T01:54:05;32.80;;;18.47;;
5795;SDS011;2924;51.458;7.046;2022-11-20T01:56:36;32.20;;;18.93;;
5795;SDS011;2924;51.458;7.046;2022-11-20T01:59:06;36.87;;;19.67;;
5795;SDS011;2924;51.458;7.046;2022-11-20T02:01:33;34.43;;;18.90;;
5795;SDS011;2924;51.458;7.046;2022-11-20T02:03:59;36.67;;;18.87;;
5795;SDS011;2924;51.458;7.046;2022-11-20T02:06:27;39.53;;;20.10;;
5795;SDS011;2924;51.458;7.046;2022-11-20T02:08:57;28.03;;;17.73;;
5795;SDS011;2924;51.458;7.046;2022-11-20T02:11:23;38.17;;;19.50;;
5795;SDS011;2924;51.458;7.046;2022-11-20T02:13:49;35.00;;;20.03;;
5795;SDS011;2924;51.458;7.046;2022-11-20T02:18:46;36.83;;;20.27;;
5795;SDS011;2924;51.458;7.046;2022-11-20T02:26:18;32.17;;;17.63;;
5795;SDS011;2924;51.458;7.046;2022-11-20T02:28:46;37.23;;;20.50;;
5795;SDS011;2924;51.458;7.046;2022-11-20T02:31:11;33.50;;;19.23;;
5795;SDS011;2924;51.458;7.046;2022-11-20T02:33:37;27.70;;;16.57;;
5795;SDS011;2924;51.458;7.046;2022-11-20T02:36:03;33.63;;;19.30;;
5795;SDS011;2924;51.458;7.046;2022-11-20T02:38:29;39.10;;;19.23;;
5795;SDS011;2924;51.458;7.046;2022-11-20T02:40:55;34.00;;;19.50;;
5795;SDS011;2924;51.458;7.046;2022-11-20T02:43:20;30.00;;;17.33;;
5795;SDS011;2924;51.458;7.046;2022-11-20T02:45:46;32.60;;;19.13;;
5795;SDS011;2924;51.458;7.046;2022-11-20T02:48:11;32.07;;;18.40;;
5795;SDS011;2924;51.458;7.046;2022-11-20T02:50:38;35.63;;;18.50;;
5795;SDS011;2924;51.458;7.046;2022-11-20T02:53:04;37.70;;;19.73;;
5795;SDS011;2924;51.458;7.046;2022-11-20T02:55:30;30.57;;;17.73;;
5795;SDS011;2924;51.458;7.046;2022-11-20T02:57:56;29.67;;;18.03;;
5795;SDS011;2924;51.458;7.046;2022-11-20T03:00:21;34.43;;;18.47;;
5795;SDS011;2924;51.458;7.046;2022-11-20T03:02:47;33.77;;;18.47;;
5795;SDS011;2924;51.458;7.046;2022-11-20T03:05:13;31.00;;;16.83;;
5795;SDS011;2924;51.458;7.046;2022-11-20T03:07:38;30.10;;;17.13;;
5795;SDS011;2924;51.458;7.046;2022-11-20T03:10:04;33.40;;;18.40;;
5795;SDS011;2924;51.458;7.046;2022-11-20T03:12:30;35.67;;;18.70;;
5795;SDS011;2924;51.458;7.046;2022-11-20T03:14:56;36.70;;;19.00;;
5795;SDS011;2924;51.458;7.046;2022-11-20T03:17:21;30.13;;;17.00;;
5795;SDS011;2924;51.458;7.046;2022-11-20T03:19:47;37.70;;;19.50;;
5795;SDS011;2924;51.458;7.046;2022-11-20T03:22:13;28.43;;;17.17;;
5795;SDS011;2924;51.458;7.046;2022-11-20T03:24:38;30.93;;;17.90;;
5795;SDS011;2924;51.458;7.046;2022-11-20T03:27:04;27.23;;;17.00;;
5795;SDS011;2924;51.458;7.046;2022-11-20T03:29:29;33.20;;;18.03;;
5795;SDS011;2924;51.458;7.046;2022-11-20T03:31:55;29.67;;;15.80;;
5795;SDS011;2924;51.458;7.046;2022-11-20T03:34:21;29.90;;;16.57;;
5795;SDS011;2924;51.458;7.046;2022-11-20T03:36:46;25.07;;;15.87;;
5795;SDS011;2924;51.458;7.046;2022-11-20T03:39:12;27.33;;;15.90;;
5795;SDS011;2924;51.458;7.046;2022-11-20T03:41:39;26.50;;;16.27;;
5795;SDS011;2924;51.458;7.046;2022-11-20T03:44:06;24.97;;;15.23;;
5795;SDS011;2924;51.458;7.046;2022-11-20T03:46:33;28.70;;;16.80;;
5795;SDS011;2924;51.458;7.046;2022-11-20T03:48:59;29.70;;;16.33;;
5795;SDS011;2924;51.458;7.046;2022-11-20T03:51:26;25.30;;;16.17;;
5795;SDS011;2924;51.458;7.046;2022-11-20T03:53:57;27.03;;;16.60;;
5795;SDS011;2924;51.458;7.046;2022-11-20T03:56:25;28.50;;;16.80;;
5795;SDS011;2924;51.458;7.046;2022-11-20T03:58:53;27.30;;;16.90;;
5795;SDS011;2924;51.458;7.046;2022-11-20T04:01:20;26.67;;;17.80;;
5795;SDS011;2924;51.458;7.046;2022-11-20T04:03:47;26.80;;;15.23;;
5795;SDS011;2924;51.458;7.046;2022-11-20T04:06:14;29.27;;;16.80;;
5795;SDS011;2924;51.458;7.046;2022-11-20T04:08:42;28.60;;;17.20;;
5795;SDS011;2924;51.458;7.046;2022-11-20T04:11:11;28.37;;;17.33;;
5795;SDS011;2924;51.458;7.046;2022-11-20T04:13:38;29.50;;;17.80;;
5795;SDS011;2924;51.458;7.046;2022-11-20T04:16:05;27.27;;;16.77;;
5795;SDS011;2924;51.458;7.046;2022-11-20T04:18:32;25.83;;;16.60;;
5795;SDS011;2924;51.458;7.046;2022-11-20T04:20:58;28.03;;;17.43;;
5795;SDS011;2924;51.458;7.046;2022-11-20T04:23:24;26.07;;;16.70;;
5795;SDS011;2924;51.458;7.046;2022-11-20T04:25:50;27.73;;;17.30;;
5795;SDS011;2924;51.458;7.046;2022-11-20T04:28:16;27.90;;;17.47;;
5795;SDS011;2924;51.458;7.046;2022-11-20T04:30:42;29.90;;;17.77;;
5795;SDS011;2924;51.458;7.046;2022-11-20T04:33:07;25.77;;;16.20;;
5795;SDS011;2924;51.458;7.046;2022-11-20T04:35:34;29.80;;;17.53;;
5795;SDS011;2924;51.458;7.046;2022-11-20T04:38:00;30.33;;;17.30;;
5795;SDS011;2924;51.458;7.046;2022-11-20T04:40:27;29.80;;;17.00;;
5795;SDS011;2924;51.458;7.046;2022-11-20T04:42:53;28.60;;;16.67;;
5795;SDS011;2924;51.458;7.046;2022-11-20T04:45:19;28.50;;;16.37;;
5795;SDS011;2924;51.458;7.046;2022-11-20T04:47:45;29.40;;;17.50;;
5795;SDS011;2924;51.458;7.046;2022-11-20T04:50:11;30.20;;;17.00;;
5795;SDS011;2924;51.458;7.046;2022-11-20T04:52:37;31.80;;;17.73;;
5795;SDS011;2924;51.458;7.046;2022-11-20T04:55:02;31.93;;;17.17;;
5795;SDS011;2924;51.458;7.046;2022-11-20T04:57:28;30.20;;;16.27;;
5795;SDS011;2924;51.458;7.046;2022-11-20T04:59:54;30.67;;;17.67;;
5795;SDS011;2924;51.458;7.046;2022-11-20T05:02:21;33.37;;;18.30;;
5795;SDS011;2924;51.458;7.046;2022-11-20T05:04:47;34.87;;;16.70;;
5795;SDS011;2924;51.458;7.046;2022-11-20T05:07:13;26.40;;;16.80;;
5795;SDS011;2924;51.458;7.046;2022-11-20T05:09:39;27.00;;;15.37;;
5795;SDS011;2924;51.458;7.046;2022-11-20T05:12:06;29.03;;;15.73;;
5795;SDS011;2924;51.458;7.046;2022-11-20T05:14:33;26.00;;;14.90;;
5795;SDS011;2924;51.458;7.046;2022-11-20T05:16:59;35.57;;;18.90;;
5795;SDS011;2924;51.458;7.046;2022-11-20T05:19:24;33.10;;;17.50;;
5795;SDS011;2924;51.458;7.046;2022-11-20T05:21:50;30.03;;;18.57;;
5795;SDS011;2924;51.458;7.046;2022-11-20T05:24:15;26.60;;;16.07;;
5795;SDS011;2924;51.458;7.046;2022-11-20T05:26:41;33.97;;;18.70;;
5795;SDS011;2924;51.458;7.046;2022-11-20T05:29:09;34.67;;;19.90;;
5795;SDS011;2924;51.458;7.046;2022-11-20T05:31:38;31.93;;;17.87;;
5795;SDS011;2924;51.458;7.046;2022-11-20T05:34:05;24.67;;;16.53;;
5795;SDS011;2924;51.458;7.046;2022-11-20T05:36:31;23.53;;;15.77;;
5795;SDS011;2924;51.458;7.046;2022-11-20T05:38:57;29.13;;;17.63;;
5795;SDS011;2924;51.458;7.046;2022-11-20T05:41:22;30.83;;;19.93;;
5795;SDS011;2924;51.458;7.046;2022-11-20T05:43:48;33.83;;;17.77;;
5795;SDS011;2924;51.458;7.046;2022-11-20T05:46:15;27.83;;;17.77;;
5795;SDS011;2924;51.458;7.046;2022-11-20T05:48:43;27.10;;;17.60;;
5795;SDS011;2924;51.458;7.046;2022-11-20T05:51:11;33.23;;;18.10;;
5795;SDS011;2924;51.458;7.046;2022-11-20T05:53:39;35.97;;;19.30;;
5795;SDS011;2924;51.458;7.046;2022-11-20T05:56:06;32.50;;;18.67;;
5795;SDS011;2924;51.458;7.046;2022-11-20T05:58:35;32.00;;;19.20;;
5795;SDS011;2924;51.458;7.046;2022-11-20T06:03:31;42.57;;;23.07;;
5795;SDS011;2924;51.458;7.046;2022-11-20T06:05:58;32.33;;;19.83;;
5795;SDS011;2924;51.458;7.046;2022-11-20T06:08:24;32.60;;;20.47;;
5795;SDS011;2924;51.458;7.046;2022-11-20T06:10:50;31.43;;;18.50;;
5795;SDS011;2924;51.458;7.046;2022-11-20T06:13:15;36.97;;;22.07;;
5795;SDS011;2924;51.458;7.046;2022-11-20T06:15:41;36.93;;;21.07;;
5795;SDS011;2924;51.458;7.046;2022-11-20T06:18:07;43.03;;;23.13;;
5795;SDS011;2924;51.458;7.046;2022-11-20T06:20:32;40.57;;;21.97;;
5795;SDS011;2924;51.458;7.046;2022-11-20T06:22:58;33.73;;;19.47;;
5795;SDS011;2924;51.458;7.046;2022-11-20T06:25:23;38.23;;;21.03;;
5795;SDS011;2924;51.458;7.046;2022-11-20T06:27:49;43.37;;;21.60;;
5795;SDS011;2924;51.458;7.046;2022-11-20T06:30:15;43.57;;;21.70;;
5795;SDS011;2924;51.458;7.046;2022-11-20T06:32:40;44.17;;;20.00;;
5795;SDS011;2924;51.458;7.046;2022-11-20T06:35:06;41.60;;;21.57;;
5795;SDS011;2924;51.458;7.046;2022-11-20T06:37:32;43.80;;;21.97;;
5795;SDS011;2924;51.458;7.046;2022-11-20T06:39:58;44.50;;;21.60;;
5795;SDS011;2924;51.458;7.046;2022-11-20T06:42:23;43.40;;;22.10;;
5795;SDS011;2924;51.458;7.046;2022-11-20T06:44:49;50.13;;;22.97;;
5795;SDS011;2924;51.458;7.046;2022-11-20T06:47:14;53.07;;;25.40;;
5795;SDS011;2924;51.458;7.046;2022-11-20T06:49:40;55.13;;;24.93;;
5795;SDS011;2924;51.458;7.046;2022-11-20T06:52:06;46.60;;;24.23;;
5795;SDS011;2924;51.458;7.046;2022-11-20T06:54:31;51.43;;;24.93;;
5795;SDS011;2924;51.458;7.046;2022-11-20T06:56:57;55.67;;;22.90;;
5795;SDS011;2924;51.458;7.046;2022-11-20T06:59:22;46.63;;;23.43;;
5795;SDS011;2924;51.458;7.046;2022-11-20T07:01:48;47.80;;;22.60;;
5795;SDS011;2924;51.458;7.046;2022-11-20T07:04:14;44.03;;;23.40;;
5795;SDS011;2924;51.458;7.046;2022-11-20T07:06:39;48.20;;;24.10;;
5795;SDS011;2924;51.458;7.046;2022-11-20T07:09:05;46.70;;;22.00;;
5795;SDS011;2924;51.458;7.046;2022-11-20T07:11:30;44.60;;;21.97;;
5795;SDS011;2924;51.458;7.046;2022-11-20T07:13:56;53.60;;;24.30;;
5795;SDS011;2924;51.458;7.046;2022-11-20T07:16:22;47.00;;;25.00;;
5795;SDS011;2924;51.458;7.046;2022-11-20T07:18:47;48.90;;;23.50;;
5795;SDS011;2924;51.458;7.046;2022-11-20T07:21:13;54.70;;;23.90;;
5795;SDS011;2924;51.458;7.046;2022-11-20T07:23:39;62.13;;;30.50;;
5795;SDS011;2924;51.458;7.046;2022-11-20T07:26:05;42.07;;;24.10;;
5795;SDS011;2924;51.458;7.046;2022-11-20T07:28:33;51.70;;;25.47;;
5795;SDS011;2924;51.458;7.046;2022-11-20T07:30:58;50.70;;;23.33;;
5795;SDS011;2924;51.458;7.046;2022-11-20T07:33:24;45.13;;;23.07;;
5795;SDS011;2924;51.458;7.046;2022-11-20T07:35:50;48.27;;;23.00;;
5795;SDS011;2924;51.458;7.046;2022-11-20T07:38:16;40.10;;;21.57;;
5795;SDS011;2924;51.458;7.046;2022-11-20T07:40:41;39.97;;;21.00;;
5795;SDS011;2924;51.458;7.046;2022-11-20T07:43:07;50.67;;;23.30;;
5795;SDS011;2924;51.458;7.046;2022-11-20T07:45:33;39.70;;;21.70;;
5795;SDS011;2924;51.458;7.046;2022-11-20T07:47:58;40.50;;;21.87;;
5795;SDS011;2924;51.458;7.046;2022-11-20T07:50:24;42.13;;;20.87;;
5795;SDS011;2924;51.458;7.046;2022-11-20T07:52:50;44.87;;;22.90;;
5795;SDS011;2924;51.458;7.046;2022-11-20T07:55:15;48.30;;;25.87;;
5795;SDS011;2924;51.458;7.046;2022-11-20T07:57:41;44.80;;;24.67;;
5795;SDS011;2924;51.458;7.046;2022-11-20T08:00:07;59.23;;;26.90;;
5795;SDS011;2924;51.458;7.046;2022-11-20T08:02:36;56.07;;;28.30;;
5795;SDS011;2924;51.458;7.046;2022-11-20T08:05:06;51.73;;;27.13;;
5795;SDS011;2924;51.458;7.046;2022-11-20T08:07:39;53.83;;;27.60;;
5795;SDS011;2924;51.458;7.046;2022-11-20T08:10:07;59.07;;;28.77;;
5795;SDS011;2924;51.458;7.046;2022-11-20T08:12:34;51.33;;;27.27;;
5795;SDS011;2924;51.458;7.046;2022-11-20T08:15:19;52.93;;;26.87;;
5795;SDS011;2924;51.458;7.046;2022-11-20T08:17:44;54.57;;;28.90;;
5795;SDS011;2924;51.458;7.046;2022-11-20T08:20:10;56.70;;;29.60;;
5795;SDS011;2924;51.458;7.046;2022-11-20T08:22:35;47.97;;;26.80;;
5795;SDS011;2924;51.458;7.046;2022-11-20T08:25:01;52.73;;;28.93;;
5795;SDS011;2924;51.458;7.046;2022-11-20T08:27:27;124.10;;;60.83;;
5795;SDS011;2924;51.458;7.046;2022-11-20T08:29:53;55.00;;;30.20;;
5795;SDS011;2924;51.458;7.046;2022-11-20T08:32:18;48.20;;;28.57;;
5795;SDS011;2924;51.458;7.046;2022-11-20T08:34:44;46.90;;;27.87;;
5795;SDS011;2924;51.458;7.046;2022-11-20T08:37:09;47.83;;;27.80;;
5795;SDS011;2924;51.458;7.046;2022-11-20T08:39:35;45.27;;;24.90;;
5795;SDS011;2924;51.458;7.046;2022-11-20T08:42:06;48.17;;;24.03;;
5795;SDS011;2924;51.458;7.046;2022-11-20T08:44:32;37.07;;;22.60;;
5795;SDS011;2924;51.458;7.046;2022-11-20T08:46:57;34.47;;;22.10;;
5795;SDS011;2924;51.458;7.046;2022-11-20T08:49:23;35.63;;;22.47;;
5795;SDS011;2924;51.458;7.046;2022-11-20T08:51:49;36.53;;;24.50;;
5795;SDS011;2924;51.458;7.046;2022-11-20T08:54:18;34.23;;;21.43;;
5795;SDS011;2924;51.458;7.046;2022-11-20T08:56:46;35.80;;;22.53;;
5795;SDS011;2924;51.458;7.046;2022-11-20T08:59:12;37.03;;;22.97;;
5795;SDS011;2924;51.458;7.046;2022-11-20T09:01:38;37.80;;;20.57;;
5795;SDS011;2924;51.458;7.046;2022-11-20T09:04:04;34.03;;;20.63;;
5795;SDS011;2924;51.458;7.046;2022-11-20T09:06:30;35.13;;;21.03;;
5795;SDS011;2924;51.458;7.046;2022-11-20T09:08:55;33.03;;;21.60;;
5795;SDS011;2924;51.458;7.046;2022-11-20T09:11:22;33.60;;;20.40;;
5795;SDS011;2924;51.458;7.046;2022-11-20T09:13:48;30.20;;;20.20;;
5795;SDS011;2924;51.458;7.046;2022-11-20T09:16:14;28.53;;;18.83;;
5795;SDS011;2924;51.458;7.046;2022-11-20T09:18:39;30.93;;;18.80;;
5795;SDS011;2924;51.458;7.046;2022-11-20T09:21:06;30.90;;;20.03;;
5795;SDS011;2924;51.458;7.046;2022-11-20T09:23:35;30.67;;;19.97;;
5795;SDS011;2924;51.458;7.046;2022-11-20T09:26:05;28.30;;;18.50;;
5795;SDS011;2924;51.458;7.046;2022-11-20T09:28:34;29.07;;;18.27;;
5795;SDS011;2924;51.458;7.046;2022-11-20T09:30:59;32.60;;;19.10;;
5795;SDS011;2924;51.458;7.046;2022-11-20T09:33:25;30.03;;;17.70;;
5795;SDS011;2924;51.458;7.046;2022-11-20T09:35:51;29.53;;;16.80;;
5795;SDS011;2924;51.458;7.046;2022-11-20T09:38:17;23.40;;;13.67;;
5795;SDS011;2924;51.458;7.046;2022-11-20T09:41:27;25.50;;;17.27;;
5795;SDS011;2924;51.458;7.046;2022-11-20T09:43:56;26.63;;;17.40;;
5795;SDS011;2924;51.458;7.046;2022-11-20T09:49:36;24.97;;;16.60;;
5795;SDS011;2924;51.458;7.046;2022-11-20T09:52:26;20.70;;;15.53;;
5795;SDS011;2924;51.458;7.046;2022-11-20T09:55:09;22.40;;;15.47;;
5795;SDS011;2924;51.458;7.046;2022-11-20T09:57:37;28.53;;;16.87;;
5795;SDS011;2924;51.458;7.046;2022-11-20T10:00:06;21.93;;;15.67;;
5795;SDS011;2924;51.458;7.046;2022-11-20T10:02:45;19.37;;;12.87;;
5795;SDS011;2924;51.458;7.046;2022-11-20T10:05:18;20.10;;;13.60;;
5795;SDS011;2924;51.458;7.046;2022-11-20T10:21:26;19.00;;;13.17;;
5795;SDS011;2924;51.458;7.046;2022-11-20T10:24:19;15.07;;;10.00;;
5795;SDS011;2924;51.458;7.046;2022-11-20T10:27:22;15.90;;;10.17;;
5795;SDS011;2924;51.458;7.046;2022-11-20T10:30:12;12.63;;;8.73;;
5795;SDS011;2924;51.458;7.046;2022-11-20T10:32:42;13.60;;;9.10;;
5795;SDS011;2924;51.458;7.046;2022-11-20T10:37:40;13.00;;;8.33;;
5795;SDS011;2924;51.458;7.046;2022-11-20T10:40:19;11.97;;;8.00;;
5795;SDS011;2924;51.458;7.046;2022-11-20T10:47:54;10.87;;;8.13;;
5795;SDS011;2924;51.458;7.046;2022-11-20T10:51:03;10.47;;;8.50;;
5795;SDS011;2924;51.458;7.046;2022-11-20T10:53:40;8.60;;;6.77;;
5795;SDS011;2924;51.458;7.046;2022-11-20T10:59:11;11.30;;;8.50;;
5795;SDS011;2924;51.458;7.046;2022-11-20T11:01:52;12.27;;;7.47;;
5795;SDS011;2924;51.458;7.046;2022-11-20T11:04:28;9.20;;;7.73;;
5795;SDS011;2924;51.458;7.046;2022-11-20T11:09:43;12.00;;;8.93;;
5795;SDS011;2924;51.458;7.046;2022-11-20T11:12:12;11.83;;;8.37;;
5795;SDS011;2924;51.458;7.046;2022-11-20T11:14:45;13.87;;;9.00;;
5795;SDS011;2924;51.458;7.046;2022-11-20T11:17:32;11.87;;;9.30;;
5795;SDS011;2924;51.458;7.046;2022-11-20T11:23:00;11.87;;;8.60;;
5795;SDS011;2924;51.458;7.046;2022-11-20T11:25:32;14.10;;;9.53;;
5795;SDS011;2924;51.458;7.046;2022-11-20T11:28:03;12.33;;;8.47;;
5795;SDS011;2924;51.458;7.046;2022-11-20T11:30:44;15.30;;;8.50;;
5795;SDS011;2924;51.458;7.046;2022-11-20T11:33:25;13.13;;;9.30;;
5795;SDS011;2924;51.458;7.046;2022-11-20T11:35:56;15.33;;;10.70;;
5795;SDS011;2924;51.458;7.046;2022-11-20T11:38:32;13.27;;;8.80;;
5795;SDS011;2924;51.458;7.046;2022-11-20T11:41:01;13.20;;;9.53;;
5795;SDS011;2924;51.458;7.046;2022-11-20T11:43:29;13.90;;;9.40;;
5795;SDS011;2924;51.458;7.046;2022-11-20T11:46:27;12.97;;;10.10;;
5795;SDS011;2924;51.458;7.046;2022-11-20T11:49:19;14.13;;;9.77;;
5795;SDS011;2924;51.458;7.046;2022-11-20T11:51:56;15.07;;;8.57;;
5795;SDS011;2924;51.458;7.046;2022-11-20T11:54:24;15.73;;;9.90;;
5795;SDS011;2924;51.458;7.046;2022-11-20T11:56:55;15.77;;;9.90;;
5795;SDS011;2924;51.458;7.046;2022-11-20T11:59:33;15.23;;;10.60;;
5795;SDS011;2924;51.458;7.046;2022-11-20T12:05:35;16.97;;;9.53;;
5795;SDS011;2924;51.458;7.046;2022-11-20T12:10:39;13.73;;;9.30;;
5795;SDS011;2924;51.458;7.046;2022-11-20T12:15:58;17.50;;;11.07;;
5795;SDS011;2924;51.458;7.046;2022-11-20T12:18:24;14.50;;;9.50;;
5795;SDS011;2924;51.458;7.046;2022-11-20T12:29:36;16.87;;;11.27;;
5795;SDS011;2924;51.458;7.046;2022-11-20T12:34:58;17.27;;;11.50;;
5795;SDS011;2924;51.458;7.046;2022-11-20T12:51:11;16.27;;;11.20;;
5795;SDS011;2924;51.458;7.046;2022-11-20T12:57:06;19.37;;;11.23;;
5795;SDS011;2924;51.458;7.046;2022-11-20T13:00:21;24.13;;;12.93;;
5795;SDS011;2924;51.458;7.046;2022-11-20T13:05:43;19.07;;;11.10;;
5795;SDS011;2924;51.458;7.046;2022-11-20T13:08:30;23.97;;;13.40;;
5795;SDS011;2924;51.458;7.046;2022-11-20T13:17:30;28.70;;;11.90;;
5795;SDS011;2924;51.458;7.046;2022-11-20T13:20:02;19.53;;;13.77;;
5795;SDS011;2924;51.458;7.046;2022-11-20T13:22:44;16.37;;;11.83;;
5795;SDS011;2924;51.458;7.046;2022-11-20T13:27:54;18.60;;;12.27;;
5795;SDS011;2924;51.458;7.046;2022-11-20T13:30:21;17.07;;;11.60;;
5795;SDS011;2924;51.458;7.046;2022-11-20T13:32:49;19.83;;;11.97;;
5795;SDS011;2924;51.458;7.046;2022-11-20T13:35:31;17.67;;;11.83;;
5795;SDS011;2924;51.458;7.046;2022-11-20T13:38:10;18.20;;;11.53;;
5795;SDS011;2924;51.458;7.046;2022-11-20T13:40:38;21.07;;;12.23;;
5795;SDS011;2924;51.458;7.046;2022-11-20T13:43:44;21.10;;;13.50;;
5795;SDS011;2924;51.458;7.046;2022-11-20T13:46:11;19.27;;;11.73;;
5795;SDS011;2924;51.458;7.046;2022-11-20T14:02:14;18.53;;;12.80;;
5795;SDS011;2924;51.458;7.046;2022-11-20T14:04:49;19.90;;;13.17;;
5795;SDS011;2924;51.458;7.046;2022-11-20T14:07:17;20.03;;;12.73;;
5795;SDS011;2924;51.458;7.046;2022-11-20T14:09:51;22.33;;;14.80;;
5795;SDS011;2924;51.458;7.046;2022-11-20T14:12:19;23.00;;;14.17;;
5795;SDS011;2924;51.458;7.046;2022-11-20T14:14:47;23.10;;;14.93;;
5795;SDS011;2924;51.458;7.046;2022-11-20T14:17:20;25.60;;;15.27;;
5795;SDS011;2924;51.458;7.046;2022-11-20T14:19:46;34.70;;;17.80;;
5795;SDS011;2924;51.458;7.046;2022-11-20T14:22:24;27.07;;;17.33;;
5795;SDS011;2924;51.458;7.046;2022-11-20T14:27:38;28.30;;;17.57;;
5795;SDS011;2924;51.458;7.046;2022-11-20T14:30:05;22.10;;;15.40;;
5795;SDS011;2924;51.458;7.046;2022-11-20T14:32:42;29.40;;;17.50;;
5795;SDS011;2924;51.458;7.046;2022-11-20T14:35:09;30.30;;;16.97;;
5795;SDS011;2924;51.458;7.046;2022-11-20T14:37:44;28.90;;;16.23;;
5795;SDS011;2924;51.458;7.046;2022-11-20T14:42:48;29.90;;;16.80;;
5795;SDS011;2924;51.458;7.046;2022-11-20T14:45:14;25.43;;;15.43;;
5795;SDS011;2924;51.458;7.046;2022-11-20T14:47:40;34.10;;;19.47;;
5795;SDS011;2924;51.458;7.046;2022-11-20T14:50:12;31.53;;;17.97;;
5795;SDS011;2924;51.458;7.046;2022-11-20T14:52:53;26.73;;;16.03;;
5795;SDS011;2924;51.458;7.046;2022-11-20T14:57:56;29.30;;;17.97;;
5795;SDS011;2924;51.458;7.046;2022-11-20T15:00:32;35.13;;;16.70;;
5795;SDS011;2924;51.458;7.046;2022-11-20T15:02:59;27.70;;;16.10;;
5795;SDS011;2924;51.458;7.046;2022-11-20T15:05:37;26.13;;;15.50;;
5795;SDS011;2924;51.458;7.046;2022-11-20T15:08:10;30.37;;;17.53;;
5795;SDS011;2924;51.458;7.046;2022-11-20T15:10:37;25.20;;;15.70;;
5795;SDS011;2924;51.458;7.046;2022-11-20T15:13:11;31.13;;;17.87;;
5795;SDS011;2924;51.458;7.046;2022-11-20T15:15:54;28.20;;;17.50;;
5795;SDS011;2924;51.458;7.046;2022-11-20T15:18:42;33.87;;;17.10;;
5795;SDS011;2924;51.458;7.046;2022-11-20T15:21:10;30.70;;;17.50;;
5795;SDS011;2924;51.458;7.046;2022-11-20T15:23:40;30.40;;;18.37;;
5795;SDS011;2924;51.458;7.046;2022-11-20T15:26:09;34.40;;;18.70;;
5795;SDS011;2924;51.458;7.046;2022-11-20T15:28:37;34.27;;;19.73;;
5795;SDS011;2924;51.458;7.046;2022-11-20T15:31:05;33.13;;;19.00;;
5795;SDS011;2924;51.458;7.046;2022-11-20T15:33:32;36.83;;;18.83;;
5795;SDS011;2924;51.458;7.046;2022-11-20T15:35:58;31.80;;;19.03;;
5795;SDS011;2924;51.458;7.046;2022-11-20T15:38:24;34.47;;;20.33;;
5795;SDS011;2924;51.458;7.046;2022-11-20T15:40:50;33.73;;;19.93;;
5795;SDS011;2924;51.458;7.046;2022-11-20T15:43:16;38.07;;;19.40;;
5795;SDS011;2924;51.458;7.046;2022-11-20T15:48:20;36.97;;;18.97;;
5795;SDS011;2924;51.458;7.046;2022-11-20T15:50:56;35.83;;;21.47;;
5795;SDS011;2924;51.458;7.046;2022-11-20T15:53:30;41.77;;;22.73;;
5795;SDS011;2924;51.458;7.046;2022-11-20T15:55:56;40.63;;;20.63;;
5795;SDS011;2924;51.458;7.046;2022-11-20T15:58:22;38.37;;;20.93;;
5795;SDS011;2924;51.458;7.046;2022-11-20T16:00:49;46.33;;;24.67;;
5795;SDS011;2924;51.458;7.046;2022-11-20T16:03:15;44.57;;;24.50;;
5795;SDS011;2924;51.458;7.046;2022-11-20T16:05:41;39.30;;;20.70;;
5795;SDS011;2924;51.458;7.046;2022-11-20T16:08:08;50.00;;;23.53;;
5795;SDS011;2924;51.458;7.046;2022-11-20T16:10:33;40.27;;;22.03;;
5795;SDS011;2924;51.458;7.046;2022-11-20T16:13:00;39.43;;;20.70;;
5795;SDS011;2924;51.458;7.046;2022-11-20T16:15:50;41.93;;;22.63;;
5795;SDS011;2924;51.458;7.046;2022-11-20T16:18:18;43.70;;;22.77;;
5795;SDS011;2924;51.458;7.046;2022-11-20T16:20:46;42.10;;;22.87;;
5795;SDS011;2924;51.458;7.046;2022-11-20T16:23:13;49.10;;;24.20;;
5795;SDS011;2924;51.458;7.046;2022-11-20T16:25:40;54.77;;;24.70;;
5795;SDS011;2924;51.458;7.046;2022-11-20T16:28:07;48.00;;;24.80;;
5795;SDS011;2924;51.458;7.046;2022-11-20T16:30:33;58.60;;;27.87;;
5795;SDS011;2924;51.458;7.046;2022-11-20T16:32:59;53.20;;;25.00;;
5795;SDS011;2924;51.458;7.046;2022-11-20T16:35:29;50.67;;;25.67;;
5795;SDS011;2924;51.458;7.046;2022-11-20T16:37:57;44.43;;;25.00;;
5795;SDS011;2924;51.458;7.046;2022-11-20T16:40:23;50.60;;;25.87;;
5795;SDS011;2924;51.458;7.046;2022-11-20T16:42:50;52.93;;;25.07;;
5795;SDS011;2924;51.458;7.046;2022-11-20T16:45:16;51.93;;;24.13;;
5795;SDS011;2924;51.458;7.046;2022-11-20T16:47:42;43.60;;;21.63;;
5795;SDS011;2924;51.458;7.046;2022-11-20T16:50:08;49.57;;;24.33;;
5795;SDS011;2924;51.458;7.046;2022-11-20T16:52:34;48.27;;;24.30;;
5795;SDS011;2924;51.458;7.046;2022-11-20T16:55:00;61.90;;;24.87;;
5795;SDS011;2924;51.458;7.046;2022-11-20T16:57:29;51.80;;;25.60;;